createdAt,value
2022-07-29T00:00:45.500Z,70.82
2022-07-29T00:03:18.367Z,71.00
2022-07-29T00:05:53.007Z,70.64
2022-07-29T00:08:25.663Z,70.15
2022-07-29T00:10:58.343Z,71.48
2022-07-29T00:13:32.278Z,70.78
2022-07-29T00:16:05.686Z,71.48
2022-07-29T00:18:38.293Z,71.86
2022-07-29T00:21:10.985Z,71.83
2022-07-29T00:23:43.746Z,73.11
2022-07-29T00:26:16.247Z,73.63
2022-07-29T00:28:48.724Z,73.32
2022-07-29T00:31:21.519Z,74.50
2022-07-29T00:33:55.373Z,73.79
2022-07-29T00:36:28.161Z,74.21
2022-07-29T00:39:01.918Z,75.92
2022-07-29T00:41:34.579Z,76.05
2022-07-29T00:44:07.348Z,77.58
2022-07-29T00:46:39.981Z,77.78
2022-07-29T00:49:12.740Z,82.87
2022-07-29T00:51:45.490Z,91.88
2022-07-29T00:54:19.338Z,100.00
2022-07-29T00:56:52.186Z,100.00
2022-07-29T00:59:24.645Z,100.00
2022-07-29T01:02:07.586Z,100.00
2022-07-29T01:04:41.319Z,100.00
2022-07-29T01:07:14.195Z,100.00
2022-07-29T01:09:47.966Z,100.00
2022-07-29T01:12:25.070Z,100.00
2022-07-29T01:14:57.553Z,100.00
2022-07-29T01:17:37.979Z,100.00
2022-07-29T01:20:22.607Z,100.00
2022-07-29T01:23:38.338Z,100.00
2022-07-29T01:26:13.788Z,100.00
2022-07-29T01:28:47.859Z,100.00
2022-07-29T01:31:29.132Z,100.00
2022-07-29T01:34:07.623Z,100.00
2022-07-29T01:36:51.262Z,100.00
2022-07-29T01:39:51.325Z,100.00
2022-07-29T01:42:46.126Z,100.00
2022-07-29T01:45:31.609Z,100.00
2022-07-29T01:48:11.304Z,100.00
2022-07-29T01:50:51.661Z,100.00
2022-07-29T01:53:38.010Z,100.00
2022-07-29T01:56:12.958Z,100.00
2022-07-29T01:58:46.958Z,100.00
2022-07-29T02:01:21.320Z,100.00
2022-07-29T02:03:55.202Z,100.00
2022-07-29T02:06:30.858Z,100.00
2022-07-29T02:09:03.730Z,100.00
2022-07-29T02:11:38.684Z,100.00
2022-07-29T02:14:14.174Z,100.00
2022-07-29T02:16:50.584Z,100.00
2022-07-29T02:19:27.612Z,100.00
2022-07-29T02:22:02.269Z,100.00
2022-07-29T02:24:38.536Z,100.00
2022-07-29T02:27:12.917Z,100.00
2022-07-29T02:29:46.569Z,100.00
2022-07-29T02:32:22.343Z,100.00
2022-07-29T02:34:55.941Z,100.00
2022-07-29T02:37:30.165Z,100.00
2022-07-29T02:40:03.974Z,100.00
2022-07-29T02:42:37.491Z,100.00
2022-07-29T02:45:11.046Z,100.00
2022-07-29T02:47:50.590Z,100.00
2022-07-29T02:50:35.601Z,100.00
2022-07-29T02:53:17.861Z,100.00
2022-07-29T02:55:57.647Z,100.00
2022-07-29T02:58:33.378Z,100.00
2022-07-29T03:01:19.371Z,100.00
2022-07-29T03:03:55.032Z,100.00
2022-07-29T03:06:38.162Z,100.00
2022-07-29T03:09:13.796Z,100.00
2022-07-29T03:11:50.412Z,100.00
2022-07-29T03:14:39.347Z,100.00
2022-07-29T03:17:35.225Z,100.00
2022-07-29T03:20:09.480Z,100.00
2022-07-29T03:22:48.154Z,100.00
2022-07-29T03:25:21.586Z,100.00
2022-07-29T03:27:54.257Z,100.00
2022-07-29T03:30:26.830Z,100.00
2022-07-29T03:32:59.863Z,100.00
2022-07-29T03:35:32.833Z,100.00
2022-07-29T03:38:05.722Z,100.00
2022-07-29T03:40:47.483Z,100.00
2022-07-29T03:43:22.881Z,100.00
2022-07-29T03:45:56.269Z,100.00
2022-07-29T03:48:31.683Z,100.00
2022-07-29T03:51:04.294Z,100.00
2022-07-29T03:53:37.688Z,100.00
2022-07-29T03:56:11.279Z,100.00
2022-07-29T03:58:45.308Z,100.00
2022-07-29T04:01:18.965Z,100.00
2022-07-29T04:03:52.091Z,100.00
2022-07-29T04:06:26.838Z,100.00
2022-07-29T04:08:59.443Z,100.00
2022-07-29T04:11:32.121Z,100.00
2022-07-29T04:14:04.848Z,100.00
2022-07-29T04:16:37.342Z,100.00
2022-07-29T04:19:09.739Z,100.00
2022-07-29T04:21:42.988Z,100.00
2022-07-29T04:24:15.990Z,100.00
2022-07-29T04:26:49.283Z,100.00
2022-07-29T04:29:21.799Z,100.00
2022-07-29T04:31:54.460Z,100.00
2022-07-29T04:34:28.267Z,100.00
2022-07-29T04:37:00.905Z,100.00
2022-07-29T04:39:33.483Z,100.00
2022-07-29T04:42:06.288Z,100.00
2022-07-29T04:44:43.064Z,100.00
2022-07-29T04:47:16.031Z,100.00
2022-07-29T04:49:48.698Z,100.00
2022-07-29T04:52:21.180Z,100.00
2022-07-29T04:54:53.608Z,100.00
2022-07-29T04:57:26.098Z,100.00
2022-07-29T04:59:58.749Z,100.00
2022-07-29T05:02:31.270Z,100.00
2022-07-29T05:05:04.112Z,100.00
2022-07-29T05:07:36.729Z,100.00
2022-07-29T05:10:09.835Z,100.00
2022-07-29T05:12:43.335Z,100.00
2022-07-29T05:15:15.893Z,100.00
2022-07-29T05:17:48.532Z,100.00
2022-07-29T05:20:27.067Z,100.00
2022-07-29T05:23:01.003Z,100.00
2022-07-29T05:25:43.808Z,100.00
2022-07-29T05:28:17.688Z,100.00
2022-07-29T05:30:50.494Z,100.00
2022-07-29T05:33:35.124Z,100.00
2022-07-29T05:36:09.380Z,100.00
2022-07-29T05:38:41.877Z,100.00
2022-07-29T05:41:14.442Z,100.00
2022-07-29T05:43:46.942Z,100.00
2022-07-29T05:46:19.476Z,100.00
2022-07-29T05:48:52.029Z,100.00
2022-07-29T05:51:24.506Z,100.00
2022-07-29T05:54:03.047Z,100.00
2022-07-29T05:56:37.226Z,100.00
2022-07-29T05:59:17.896Z,100.00
2022-07-29T06:01:50.919Z,100.00
2022-07-29T06:04:23.804Z,100.00
2022-07-29T06:06:56.342Z,100.00
2022-07-29T06:09:29.509Z,100.00
2022-07-29T06:12:02.625Z,100.00
2022-07-29T06:14:36.744Z,100.00
2022-07-29T06:17:09.705Z,100.00
2022-07-29T06:19:42.860Z,100.00
2022-07-29T06:22:17.717Z,100.00
2022-07-29T06:24:52.808Z,100.00
2022-07-29T06:27:25.730Z,100.00
2022-07-29T06:29:58.440Z,100.00
2022-07-29T06:32:32.172Z,100.00
2022-07-29T06:35:32.915Z,100.00
2022-07-29T06:37:59.495Z,100.00
2022-07-29T06:40:51.094Z,100.00
2022-07-29T06:43:24.102Z,100.00
2022-07-29T06:46:03.886Z,100.00
2022-07-29T06:48:39.392Z,100.00
2022-07-29T06:51:12.711Z,100.00
2022-07-29T06:53:59.591Z,100.00
2022-07-29T06:56:40.287Z,100.00
2022-07-29T06:59:13.682Z,100.00
2022-07-29T07:01:46.492Z,100.00
2022-07-29T07:04:19.838Z,100.00
2022-07-29T07:06:52.773Z,100.00
2022-07-29T07:09:25.468Z,100.00
2022-07-29T07:12:12.789Z,100.00
2022-07-29T07:14:46.158Z,100.00
2022-07-29T07:17:18.734Z,100.00
2022-07-29T07:19:51.199Z,100.00
2022-07-29T07:22:23.721Z,100.00
2022-07-29T07:24:56.261Z,100.00
2022-07-29T07:27:29.431Z,100.00
2022-07-29T07:30:03.048Z,100.00
2022-07-29T07:32:36.314Z,100.00
2022-07-29T07:35:10.382Z,100.00
2022-07-29T07:37:42.831Z,100.00
2022-07-29T07:40:18.521Z,100.00
2022-07-29T07:42:51.713Z,100.00
2022-07-29T07:45:33.692Z,100.00
2022-07-29T07:48:06.342Z,100.00
2022-07-29T07:50:39.001Z,100.00
2022-07-29T07:53:12.144Z,100.00
2022-07-29T07:56:09.330Z,100.00
2022-07-29T07:58:37.757Z,96.50
2022-07-29T08:01:10.732Z,95.52
2022-07-29T08:03:43.188Z,100.00
2022-07-29T08:06:16.000Z,93.94
2022-07-29T08:08:48.460Z,91.31
2022-07-29T08:11:23.702Z,91.44
2022-07-29T08:13:59.538Z,87.77
2022-07-29T08:16:31.960Z,84.98
2022-07-29T08:19:04.436Z,87.36
2022-07-29T08:21:37.366Z,86.60
2022-07-29T08:24:29.630Z,88.01
2022-07-29T08:27:02.284Z,87.24
2022-07-29T08:29:35.064Z,84.65
2022-07-29T08:32:11.878Z,85.07
2022-07-29T08:34:47.351Z,78.81
2022-07-29T08:37:19.859Z,81.33
2022-07-29T08:39:52.337Z,74.99
2022-07-29T08:42:25.226Z,73.89
2022-07-29T08:44:58.738Z,72.70
2022-07-29T08:47:31.844Z,73.46
2022-07-29T08:50:04.731Z,73.93
2022-07-29T08:52:40.018Z,70.35
2022-07-29T08:55:13.800Z,68.70
2022-07-29T08:57:51.104Z,66.15
2022-07-29T09:00:28.329Z,65.22
2022-07-29T09:03:01.271Z,74.77
2022-07-29T09:05:39.498Z,63.45
2022-07-29T09:08:14.726Z,60.25
2022-07-29T09:10:47.921Z,58.68
2022-07-29T09:13:20.892Z,60.51
2022-07-29T09:15:55.876Z,56.67
2022-07-29T09:18:44.378Z,56.89
2022-07-29T09:21:36.797Z,57.25
2022-07-29T09:24:14.791Z,54.50
2022-07-29T09:26:47.580Z,55.33
2022-07-29T09:29:26.059Z,54.09
2022-07-29T09:32:03.590Z,53.04
2022-07-29T09:34:36.333Z,52.16
2022-07-29T09:37:09.961Z,50.34
2022-07-29T09:39:48.453Z,52.95
2022-07-29T09:42:40.325Z,53.76
2022-07-29T09:45:26.699Z,48.44
2022-07-29T09:48:04.129Z,49.89
2022-07-29T09:50:38.170Z,49.32
2022-07-29T09:53:32.172Z,48.96
2022-07-29T09:56:10.883Z,47.38
2022-07-29T09:58:46.578Z,50.01
2022-07-29T10:01:38.452Z,46.53
2022-07-29T10:04:21.085Z,46.86
2022-07-29T10:07:04.874Z,46.59
2022-07-29T10:10:10.907Z,47.36
2022-07-29T10:12:54.540Z,45.75
2022-07-29T10:15:30.027Z,42.79
2022-07-29T10:18:13.403Z,43.13
2022-07-29T10:21:35.405Z,44.90
2022-07-29T10:24:15.109Z,42.41
2022-07-29T10:26:57.239Z,41.97
2022-07-29T10:32:54.213Z,42.78
2022-07-29T10:39:09.932Z,41.84
2022-07-29T10:42:35.540Z,41.35
2022-07-29T10:45:11.325Z,39.20
2022-07-29T10:48:15.141Z,40.28
2022-07-29T10:51:21.175Z,40.88
2022-07-29T11:01:37.714Z,39.07
2022-07-29T11:04:51.853Z,39.31
2022-07-29T11:07:45.959Z,40.81
2022-07-29T11:13:11.503Z,38.22
2022-07-29T11:16:21.699Z,38.47
2022-07-29T11:19:32.107Z,37.07
2022-07-29T11:22:21.526Z,36.23
2022-07-29T11:25:50.341Z,38.74
2022-07-29T11:28:30.057Z,34.91
2022-07-29T11:31:14.010Z,36.07
2022-07-29T11:34:27.964Z,37.24
2022-07-29T11:37:20.071Z,35.48
2022-07-29T11:40:23.982Z,33.71
2022-07-29T11:43:15.882Z,35.46
2022-07-29T11:46:06.219Z,35.58
2022-07-29T11:49:18.074Z,34.56
2022-07-29T11:52:17.867Z,34.87
2022-07-29T11:55:10.436Z,35.21
2022-07-29T11:59:45.930Z,36.99
2022-07-29T12:02:37.200Z,35.51
2022-07-29T12:05:22.185Z,34.00
2022-07-29T12:08:31.966Z,35.39
2022-07-29T12:11:47.497Z,34.90
2022-07-29T12:14:39.995Z,32.36
2022-07-29T12:17:36.024Z,33.73
2022-07-29T12:20:21.796Z,32.05
2022-07-29T12:23:06.440Z,33.97
2022-07-29T12:25:54.637Z,33.17
2022-07-29T12:28:50.186Z,33.33
2022-07-29T12:31:42.783Z,33.46
2022-07-29T12:37:20.792Z,31.24
2022-07-29T12:49:52.858Z,34.08
2022-07-29T12:52:36.114Z,33.42
2022-07-29T12:54:12.250Z,31.59
2022-07-29T12:55:20.431Z,33.29
2022-07-29T12:57:58.743Z,33.59
2022-07-29T13:04:30.935Z,32.35
2022-07-29T13:07:14.712Z,31.80
2022-07-29T13:09:48.568Z,31.57
2022-07-29T13:12:40.368Z,33.14
2022-07-29T13:15:15.775Z,31.44
2022-07-29T13:18:04.395Z,29.40
